sensor_id;sensor_type;location;lat;lon;timestamp;P1;durP1;ratioP1;P2;durP2;ratioP2
33862;SDS011;20158;51.436;-2.742;2023-07-09T00:00:50;4.30;;;1.60;;
33862;SDS011;20158;51.436;-2.742;2023-07-09T00:03:19;6.40;;;1.90;;
33862;SDS011;20158;51.436;-2.742;2023-07-09T00:05:47;7.60;;;2.58;;
33862;SDS011;20158;51.436;-2.742;2023-07-09T00:08:25;7.10;;;1.98;;
33862;SDS011;20158;51.436;-2.742;2023-07-09T00:10:54;5.05;;;2.00;;
33862;SDS011;20158;51.436;-2.742;2023-07-09T00:13:27;5.80;;;2.40;;
33862;SDS011;20158;51.436;-2.742;2023-07-09T00:15:57;5.85;;;2.20;;
33862;SDS011;20158;51.436;-2.742;2023-07-09T00:18:44;4.70;;;2.25;;
33862;SDS011;20158;51.436;-2.742;2023-07-09T00:21:26;4.03;;;1.48;;
33862;SDS011;20158;51.436;-2.742;2023-07-09T00:23:55;4.07;;;1.70;;
33862;SDS011;20158;51.436;-2.742;2023-07-09T00:26:40;7.78;;;2.22;;
33862;SDS011;20158;51.436;-2.742;2023-07-09T00:29:12;3.97;;;1.75;;
33862;SDS011;20158;51.436;-2.742;2023-07-09T00:31:39;5.70;;;2.08;;
33862;SDS011;20158;51.436;-2.742;2023-07-09T00:34:26;6.07;;;2.05;;
33862;SDS011;20158;51.436;-2.742;2023-07-09T00:36:56;6.20;;;1.90;;
33862;SDS011;20158;51.436;-2.742;2023-07-09T00:39:23;6.43;;;1.77;;
33862;SDS011;20158;51.436;-2.742;2023-07-09T00:41:50;3.72;;;1.60;;
33862;SDS011;20158;51.436;-2.742;2023-07-09T00:49:29;5.43;;;1.90;;
33862;SDS011;20158;51.436;-2.742;2023-07-09T00:52:25;7.32;;;3.08;;
33862;SDS011;20158;51.436;-2.742;2023-07-09T00:55:17;4.13;;;1.85;;
33862;SDS011;20158;51.436;-2.742;2023-07-09T00:57:49;4.10;;;1.67;;
33862;SDS011;20158;51.436;-2.742;2023-07-09T01:00:25;5.30;;;1.73;;
33862;SDS011;20158;51.436;-2.742;2023-07-09T01:02:59;6.40;;;2.05;;
33862;SDS011;20158;51.436;-2.742;2023-07-09T01:05:26;5.80;;;1.70;;
33862;SDS011;20158;51.436;-2.742;2023-07-09T01:07:52;3.90;;;1.45;;
33862;SDS011;20158;51.436;-2.742;2023-07-09T01:10:31;5.47;;;2.55;;
33862;SDS011;20158;51.436;-2.742;2023-07-09T01:12:58;7.07;;;2.03;;
33862;SDS011;20158;51.436;-2.742;2023-07-09T01:15:42;5.80;;;1.73;;
33862;SDS011;20158;51.436;-2.742;2023-07-09T01:18:12;6.35;;;2.92;;
33862;SDS011;20158;51.436;-2.742;2023-07-09T01:20:40;5.32;;;1.95;;
33862;SDS011;20158;51.436;-2.742;2023-07-09T01:23:07;5.03;;;1.42;;
33862;SDS011;20158;51.436;-2.742;2023-07-09T01:25:36;5.28;;;1.58;;
33862;SDS011;20158;51.436;-2.742;2023-07-09T01:28:06;6.28;;;2.00;;
33862;SDS011;20158;51.436;-2.742;2023-07-09T01:30:36;5.63;;;2.00;;
33862;SDS011;20158;51.436;-2.742;2023-07-09T01:33:07;5.00;;;1.30;;
33862;SDS011;20158;51.436;-2.742;2023-07-09T01:35:38;5.03;;;2.00;;
33862;SDS011;20158;51.436;-2.742;2023-07-09T01:38:16;6.10;;;2.05;;
33862;SDS011;20158;51.436;-2.742;2023-07-09T01:40:43;5.55;;;2.25;;
33862;SDS011;20158;51.436;-2.742;2023-07-09T01:43:12;8.40;;;2.65;;
33862;SDS011;20158;51.436;-2.742;2023-07-09T01:45:38;5.32;;;1.90;;
33862;SDS011;20158;51.436;-2.742;2023-07-09T01:48:23;4.25;;;2.25;;
33862;SDS011;20158;51.436;-2.742;2023-07-09T01:50:51;6.38;;;1.95;;
33862;SDS011;20158;51.436;-2.742;2023-07-09T01:53:20;4.47;;;2.03;;
33862;SDS011;20158;51.436;-2.742;2023-07-09T01:55:50;4.32;;;1.40;;
33862;SDS011;20158;51.436;-2.742;2023-07-09T01:58:16;2.75;;;1.17;;
33862;SDS011;20158;51.436;-2.742;2023-07-09T02:00:43;4.50;;;1.85;;
33862;SDS011;20158;51.436;-2.742;2023-07-09T02:03:10;5.57;;;2.03;;
33862;SDS011;20158;51.436;-2.742;2023-07-09T02:05:40;5.10;;;1.50;;
33862;SDS011;20158;51.436;-2.742;2023-07-09T02:08:06;7.00;;;2.75;;
33862;SDS011;20158;51.436;-2.742;2023-07-09T02:10:36;3.47;;;1.55;;
33862;SDS011;20158;51.436;-2.742;2023-07-09T02:13:06;4.65;;;1.98;;
33862;SDS011;20158;51.436;-2.742;2023-07-09T02:15:36;5.15;;;1.80;;
33862;SDS011;20158;51.436;-2.742;2023-07-09T02:18:02;4.78;;;2.03;;
33862;SDS011;20158;51.436;-2.742;2023-07-09T02:20:29;7.13;;;1.60;;
33862;SDS011;20158;51.436;-2.742;2023-07-09T02:22:55;4.43;;;1.90;;
33862;SDS011;20158;51.436;-2.742;2023-07-09T02:25:24;4.13;;;1.77;;
33862;SDS011;20158;51.436;-2.742;2023-07-09T02:27:51;5.68;;;2.33;;
33862;SDS011;20158;51.436;-2.742;2023-07-09T02:30:17;7.93;;;2.22;;
33862;SDS011;20158;51.436;-2.742;2023-07-09T02:32:44;5.20;;;1.98;;
33862;SDS011;20158;51.436;-2.742;2023-07-09T02:35:10;5.82;;;2.33;;
33862;SDS011;20158;51.436;-2.742;2023-07-09T02:37:37;8.07;;;2.60;;
33862;SDS011;20158;51.436;-2.742;2023-07-09T02:40:08;6.25;;;2.38;;
33862;SDS011;20158;51.436;-2.742;2023-07-09T02:42:35;5.00;;;2.30;;
33862;SDS011;20158;51.436;-2.742;2023-07-09T02:45:02;5.93;;;1.27;;
33862;SDS011;20158;51.436;-2.742;2023-07-09T02:47:31;5.88;;;1.90;;
33862;SDS011;20158;51.436;-2.742;2023-07-09T02:49:59;5.07;;;2.20;;
33862;SDS011;20158;51.436;-2.742;2023-07-09T02:52:26;4.28;;;1.95;;
33862;SDS011;20158;51.436;-2.742;2023-07-09T02:54:52;7.55;;;2.22;;
33862;SDS011;20158;51.436;-2.742;2023-07-09T02:57:19;6.65;;;2.58;;
33862;SDS011;20158;51.436;-2.742;2023-07-09T02:59:45;6.15;;;2.05;;
33862;SDS011;20158;51.436;-2.742;2023-07-09T03:02:11;4.97;;;2.00;;
33862;SDS011;20158;51.436;-2.742;2023-07-09T03:04:37;5.40;;;1.73;;
33862;SDS011;20158;51.436;-2.742;2023-07-09T03:07:04;5.03;;;1.80;;
33862;SDS011;20158;51.436;-2.742;2023-07-09T03:09:30;5.80;;;2.10;;
33862;SDS011;20158;51.436;-2.742;2023-07-09T03:11:56;6.57;;;2.13;;
33862;SDS011;20158;51.436;-2.742;2023-07-09T03:14:22;4.68;;;2.08;;
33862;SDS011;20158;51.436;-2.742;2023-07-09T03:16:48;5.30;;;2.78;;
33862;SDS011;20158;51.436;-2.742;2023-07-09T03:19:14;6.40;;;1.92;;
33862;SDS011;20158;51.436;-2.742;2023-07-09T03:21:40;4.82;;;1.77;;
33862;SDS011;20158;51.436;-2.742;2023-07-09T03:24:06;3.88;;;1.88;;
33862;SDS011;20158;51.436;-2.742;2023-07-09T03:26:33;3.65;;;1.33;;
33862;SDS011;20158;51.436;-2.742;2023-07-09T03:29:00;3.75;;;1.80;;
33862;SDS011;20158;51.436;-2.742;2023-07-09T03:31:27;7.45;;;2.28;;
33862;SDS011;20158;51.436;-2.742;2023-07-09T03:33:53;3.67;;;1.83;;
33862;SDS011;20158;51.436;-2.742;2023-07-09T03:36:19;4.97;;;1.70;;
33862;SDS011;20158;51.436;-2.742;2023-07-09T03:38:45;4.93;;;1.80;;
33862;SDS011;20158;51.436;-2.742;2023-07-09T03:41:11;2.97;;;1.35;;
33862;SDS011;20158;51.436;-2.742;2023-07-09T03:43:37;6.65;;;2.20;;
33862;SDS011;20158;51.436;-2.742;2023-07-09T03:46:03;5.50;;;1.92;;
33862;SDS011;20158;51.436;-2.742;2023-07-09T03:48:29;4.57;;;1.52;;
33862;SDS011;20158;51.436;-2.742;2023-07-09T03:50:55;3.45;;;1.73;;
33862;SDS011;20158;51.436;-2.742;2023-07-09T03:53:24;3.92;;;1.52;;
33862;SDS011;20158;51.436;-2.742;2023-07-09T03:55:54;7.20;;;2.42;;
33862;SDS011;20158;51.436;-2.742;2023-07-09T03:58:21;6.80;;;2.38;;
33862;SDS011;20158;51.436;-2.742;2023-07-09T04:00:52;3.78;;;1.77;;
33862;SDS011;20158;51.436;-2.742;2023-07-09T04:03:20;3.88;;;1.95;;
33862;SDS011;20158;51.436;-2.742;2023-07-09T04:05:47;5.03;;;1.63;;
33862;SDS011;20158;51.436;-2.742;2023-07-09T04:08:14;6.03;;;1.85;;
33862;SDS011;20158;51.436;-2.742;2023-07-09T04:10:40;3.50;;;2.13;;
33862;SDS011;20158;51.436;-2.742;2023-07-09T04:13:06;7.68;;;1.85;;
33862;SDS011;20158;51.436;-2.742;2023-07-09T04:15:32;3.92;;;1.33;;
33862;SDS011;20158;51.436;-2.742;2023-07-09T04:17:58;4.90;;;1.67;;
33862;SDS011;20158;51.436;-2.742;2023-07-09T04:20:24;3.58;;;1.80;;
33862;SDS011;20158;51.436;-2.742;2023-07-09T04:22:50;4.45;;;1.38;;
33862;SDS011;20158;51.436;-2.742;2023-07-09T04:25:16;3.33;;;1.88;;
33862;SDS011;20158;51.436;-2.742;2023-07-09T04:27:42;5.18;;;1.52;;
33862;SDS011;20158;51.436;-2.742;2023-07-09T04:30:12;3.42;;;1.50;;
33862;SDS011;20158;51.436;-2.742;2023-07-09T04:32:40;4.07;;;2.15;;
33862;SDS011;20158;51.436;-2.742;2023-07-09T04:35:09;4.05;;;2.08;;
33862;SDS011;20158;51.436;-2.742;2023-07-09T04:37:36;5.30;;;1.60;;
33862;SDS011;20158;51.436;-2.742;2023-07-09T04:40:03;3.40;;;1.52;;
33862;SDS011;20158;51.436;-2.742;2023-07-09T04:42:32;4.95;;;1.50;;
33862;SDS011;20158;51.436;-2.742;2023-07-09T04:44:58;6.13;;;2.00;;
33862;SDS011;20158;51.436;-2.742;2023-07-09T04:47:24;9.60;;;1.75;;
33862;SDS011;20158;51.436;-2.742;2023-07-09T04:49:50;5.03;;;1.27;;
33862;SDS011;20158;51.436;-2.742;2023-07-09T04:52:16;5.10;;;1.42;;
33862;SDS011;20158;51.436;-2.742;2023-07-09T04:54:42;4.15;;;2.05;;
33862;SDS011;20158;51.436;-2.742;2023-07-09T04:57:11;5.35;;;1.75;;
33862;SDS011;20158;51.436;-2.742;2023-07-09T04:59:37;5.93;;;1.70;;
33862;SDS011;20158;51.436;-2.742;2023-07-09T05:02:03;4.53;;;1.30;;
33862;SDS011;20158;51.436;-2.742;2023-07-09T05:04:30;6.40;;;1.83;;
33862;SDS011;20158;51.436;-2.742;2023-07-09T05:06:57;6.50;;;1.92;;
33862;SDS011;20158;51.436;-2.742;2023-07-09T05:09:23;5.80;;;2.20;;
33862;SDS011;20158;51.436;-2.742;2023-07-09T05:11:49;5.82;;;1.90;;
33862;SDS011;20158;51.436;-2.742;2023-07-09T05:14:18;3.97;;;1.75;;
33862;SDS011;20158;51.436;-2.742;2023-07-09T05:16:44;6.30;;;1.90;;
33862;SDS011;20158;51.436;-2.742;2023-07-09T05:19:11;4.72;;;1.60;;
33862;SDS011;20158;51.436;-2.742;2023-07-09T05:21:37;2.90;;;1.65;;
33862;SDS011;20158;51.436;-2.742;2023-07-09T05:24:06;5.65;;;1.88;;
33862;SDS011;20158;51.436;-2.742;2023-07-09T05:26:33;4.55;;;2.25;;
33862;SDS011;20158;51.436;-2.742;2023-07-09T05:28:58;4.32;;;1.60;;
33862;SDS011;20158;51.436;-2.742;2023-07-09T05:31:25;4.50;;;1.25;;
33862;SDS011;20158;51.436;-2.742;2023-07-09T05:33:51;6.18;;;2.30;;
33862;SDS011;20158;51.436;-2.742;2023-07-09T05:36:16;4.82;;;1.50;;
33862;SDS011;20158;51.436;-2.742;2023-07-09T05:38:44;5.00;;;2.10;;
33862;SDS011;20158;51.436;-2.742;2023-07-09T05:41:14;4.63;;;1.80;;
33862;SDS011;20158;51.436;-2.742;2023-07-09T05:43:42;6.32;;;1.88;;
33862;SDS011;20158;51.436;-2.742;2023-07-09T05:46:12;3.50;;;1.55;;
33862;SDS011;20158;51.436;-2.742;2023-07-09T05:48:38;5.63;;;1.80;;
33862;SDS011;20158;51.436;-2.742;2023-07-09T05:51:04;3.35;;;1.75;;
33862;SDS011;20158;51.436;-2.742;2023-07-09T05:53:30;5.75;;;1.98;;
33862;SDS011;20158;51.436;-2.742;2023-07-09T05:55:57;5.45;;;2.30;;
33862;SDS011;20158;51.436;-2.742;2023-07-09T05:58:23;6.07;;;2.90;;
33862;SDS011;20158;51.436;-2.742;2023-07-09T06:00:49;5.05;;;1.77;;
33862;SDS011;20158;51.436;-2.742;2023-07-09T06:03:19;4.85;;;1.75;;
33862;SDS011;20158;51.436;-2.742;2023-07-09T06:05:46;4.25;;;2.05;;
33862;SDS011;20158;51.436;-2.742;2023-07-09T06:08:15;7.70;;;2.22;;
33862;SDS011;20158;51.436;-2.742;2023-07-09T06:10:53;7.45;;;3.10;;
33862;SDS011;20158;51.436;-2.742;2023-07-09T06:13:23;6.00;;;1.88;;
33862;SDS011;20158;51.436;-2.742;2023-07-09T06:15:51;7.03;;;1.95;;
33862;SDS011;20158;51.436;-2.742;2023-07-09T06:18:19;6.80;;;2.53;;
33862;SDS011;20158;51.436;-2.742;2023-07-09T06:20:49;4.25;;;2.05;;
33862;SDS011;20158;51.436;-2.742;2023-07-09T06:23:18;5.95;;;2.00;;
33862;SDS011;20158;51.436;-2.742;2023-07-09T06:25:45;5.32;;;1.83;;
33862;SDS011;20158;51.436;-2.742;2023-07-09T06:28:14;8.23;;;2.08;;
33862;SDS011;20158;51.436;-2.742;2023-07-09T06:30:41;8.43;;;2.30;;
33862;SDS011;20158;51.436;-2.742;2023-07-09T06:33:06;9.05;;;2.38;;
33862;SDS011;20158;51.436;-2.742;2023-07-09T06:35:35;6.30;;;2.13;;
33862;SDS011;20158;51.436;-2.742;2023-07-09T06:38:02;7.25;;;2.13;;
33862;SDS011;20158;51.436;-2.742;2023-07-09T06:40:28;5.32;;;2.17;;
33862;SDS011;20158;51.436;-2.742;2023-07-09T06:42:54;6.60;;;2.50;;
33862;SDS011;20158;51.436;-2.742;2023-07-09T06:45:25;6.85;;;2.25;;
33862;SDS011;20158;51.436;-2.742;2023-07-09T06:47:51;6.82;;;1.65;;
33862;SDS011;20158;51.436;-2.742;2023-07-09T06:50:17;6.32;;;2.47;;
33862;SDS011;20158;51.436;-2.742;2023-07-09T06:52:43;5.50;;;2.20;;
33862;SDS011;20158;51.436;-2.742;2023-07-09T06:55:10;5.15;;;1.70;;
33862;SDS011;20158;51.436;-2.742;2023-07-09T06:57:36;5.15;;;2.17;;
33862;SDS011;20158;51.436;-2.742;2023-07-09T07:00:02;8.40;;;2.42;;
33862;SDS011;20158;51.436;-2.742;2023-07-09T07:02:32;7.63;;;3.25;;
33862;SDS011;20158;51.436;-2.742;2023-07-09T07:04:59;5.68;;;2.28;;
33862;SDS011;20158;51.436;-2.742;2023-07-09T07:07:25;5.60;;;2.50;;
33862;SDS011;20158;51.436;-2.742;2023-07-09T07:09:54;8.23;;;3.05;;
33862;SDS011;20158;51.436;-2.742;2023-07-09T07:12:24;7.70;;;2.40;;
33862;SDS011;20158;51.436;-2.742;2023-07-09T07:14:56;8.38;;;2.55;;
33862;SDS011;20158;51.436;-2.742;2023-07-09T07:17:22;9.50;;;3.20;;
33862;SDS011;20158;51.436;-2.742;2023-07-09T07:19:49;10.80;;;2.80;;
33862;SDS011;20158;51.436;-2.742;2023-07-09T07:22:15;12.98;;;3.70;;
33862;SDS011;20158;51.436;-2.742;2023-07-09T07:24:41;12.55;;;4.07;;
33862;SDS011;20158;51.436;-2.742;2023-07-09T07:27:10;11.00;;;2.88;;
33862;SDS011;20158;51.436;-2.742;2023-07-09T07:29:36;8.80;;;2.97;;
33862;SDS011;20158;51.436;-2.742;2023-07-09T07:32:05;10.18;;;3.33;;
33862;SDS011;20158;51.436;-2.742;2023-07-09T07:34:32;10.35;;;3.55;;
33862;SDS011;20158;51.436;-2.742;2023-07-09T07:36:58;8.73;;;3.75;;
33862;SDS011;20158;51.436;-2.742;2023-07-09T07:39:24;10.15;;;3.50;;
33862;SDS011;20158;51.436;-2.742;2023-07-09T07:41:50;8.00;;;2.67;;
33862;SDS011;20158;51.436;-2.742;2023-07-09T07:44:17;7.68;;;3.28;;
33862;SDS011;20158;51.436;-2.742;2023-07-09T07:46:43;9.38;;;3.78;;
33862;SDS011;20158;51.436;-2.742;2023-07-09T07:49:10;11.95;;;2.95;;
33862;SDS011;20158;51.436;-2.742;2023-07-09T07:51:36;10.65;;;3.28;;
33862;SDS011;20158;51.436;-2.742;2023-07-09T07:54:03;9.05;;;2.50;;
33862;SDS011;20158;51.436;-2.742;2023-07-09T07:56:29;6.82;;;2.60;;
33862;SDS011;20158;51.436;-2.742;2023-07-09T07:58:55;6.75;;;2.45;;
33862;SDS011;20158;51.436;-2.742;2023-07-09T08:01:21;9.57;;;3.13;;
33862;SDS011;20158;51.436;-2.742;2023-07-09T08:03:47;7.65;;;2.60;;
33862;SDS011;20158;51.436;-2.742;2023-07-09T08:06:13;6.53;;;2.28;;
33862;SDS011;20158;51.436;-2.742;2023-07-09T08:08:39;10.13;;;3.45;;
33862;SDS011;20158;51.436;-2.742;2023-07-09T08:11:08;5.80;;;2.40;;
33862;SDS011;20158;51.436;-2.742;2023-07-09T08:13:35;9.10;;;3.35;;
33862;SDS011;20158;51.436;-2.742;2023-07-09T08:16:02;6.65;;;2.85;;
33862;SDS011;20158;51.436;-2.742;2023-07-09T08:18:29;6.65;;;3.05;;
33862;SDS011;20158;51.436;-2.742;2023-07-09T08:20:55;8.43;;;2.38;;
33862;SDS011;20158;51.436;-2.742;2023-07-09T08:23:20;6.03;;;2.67;;
33862;SDS011;20158;51.436;-2.742;2023-07-09T08:25:53;18.73;;;6.63;;
33862;SDS011;20158;51.436;-2.742;2023-07-09T08:28:23;15.25;;;6.88;;
33862;SDS011;20158;51.436;-2.742;2023-07-09T08:30:53;13.82;;;7.15;;
33862;SDS011;20158;51.436;-2.742;2023-07-09T08:33:20;12.98;;;6.85;;
33862;SDS011;20158;51.436;-2.742;2023-07-09T08:35:48;12.13;;;5.82;;
33862;SDS011;20158;51.436;-2.742;2023-07-09T08:38:16;13.80;;;5.78;;
33862;SDS011;20158;51.436;-2.742;2023-07-09T08:40:46;11.90;;;5.63;;
33862;SDS011;20158;51.436;-2.742;2023-07-09T08:46:12;11.55;;;5.80;;
33862;SDS011;20158;51.436;-2.742;2023-07-09T08:49:00;9.07;;;3.75;;
33862;SDS011;20158;51.436;-2.742;2023-07-09T08:51:29;10.30;;;4.13;;
33862;SDS011;20158;51.436;-2.742;2023-07-09T08:54:04;11.68;;;3.65;;
33862;SDS011;20158;51.436;-2.742;2023-07-09T08:56:40;7.25;;;3.72;;
33862;SDS011;20158;51.436;-2.742;2023-07-09T08:59:07;6.68;;;3.25;;
33862;SDS011;20158;51.436;-2.742;2023-07-09T09:01:38;7.47;;;3.03;;
33862;SDS011;20158;51.436;-2.742;2023-07-09T09:04:14;8.65;;;3.30;;
33862;SDS011;20158;51.436;-2.742;2023-07-09T09:12:28;9.02;;;2.78;;
33862;SDS011;20158;51.436;-2.742;2023-07-09T09:15:15;7.40;;;2.88;;
33862;SDS011;20158;51.436;-2.742;2023-07-09T09:17:43;9.43;;;3.38;;
33862;SDS011;20158;51.436;-2.742;2023-07-09T09:20:10;6.40;;;2.40;;
33862;SDS011;20158;51.436;-2.742;2023-07-09T09:25:35;5.70;;;2.72;;
33862;SDS011;20158;51.436;-2.742;2023-07-09T09:28:05;6.55;;;2.22;;
33862;SDS011;20158;51.436;-2.742;2023-07-09T09:30:32;6.65;;;2.78;;
33862;SDS011;20158;51.436;-2.742;2023-07-09T09:33:00;10.93;;;2.55;;
33862;SDS011;20158;51.436;-2.742;2023-07-09T09:35:35;5.53;;;2.08;;
33862;SDS011;20158;51.436;-2.742;2023-07-09T09:38:08;7.97;;;2.40;;
33862;SDS011;20158;51.436;-2.742;2023-07-09T09:40:42;6.35;;;2.38;;
33862;SDS011;20158;51.436;-2.742;2023-07-09T09:43:12;8.23;;;3.35;;
33862;SDS011;20158;51.436;-2.742;2023-07-09T09:45:47;5.35;;;1.83;;
33862;SDS011;20158;51.436;-2.742;2023-07-09T09:48:18;8.70;;;2.85;;
33862;SDS011;20158;51.436;-2.742;2023-07-09T09:50:52;6.55;;;2.88;;
33862;SDS011;20158;51.436;-2.742;2023-07-09T09:53:24;5.53;;;2.40;;
33862;SDS011;20158;51.436;-2.742;2023-07-09T09:55:53;7.65;;;2.35;;
33862;SDS011;20158;51.436;-2.742;2023-07-09T09:58:25;7.07;;;2.60;;
33862;SDS011;20158;51.436;-2.742;2023-07-09T10:00:56;7.13;;;2.33;;
33862;SDS011;20158;51.436;-2.742;2023-07-09T10:03:34;30.65;;;3.80;;
33862;SDS011;20158;51.436;-2.742;2023-07-09T10:06:04;6.85;;;2.33;;
33862;SDS011;20158;51.436;-2.742;2023-07-09T10:08:54;6.60;;;2.45;;
33862;SDS011;20158;51.436;-2.742;2023-07-09T10:11:42;5.85;;;2.30;;
33862;SDS011;20158;51.436;-2.742;2023-07-09T10:14:22;4.82;;;2.25;;
33862;SDS011;20158;51.436;-2.742;2023-07-09T10:16:56;3.90;;;1.80;;
33862;SDS011;20158;51.436;-2.742;2023-07-09T10:22:51;6.00;;;2.35;;
33862;SDS011;20158;51.436;-2.742;2023-07-09T10:25:30;8.00;;;2.22;;
33862;SDS011;20158;51.436;-2.742;2023-07-09T10:39:20;6.55;;;2.13;;
33862;SDS011;20158;51.436;-2.742;2023-07-09T10:41:51;5.97;;;1.58;;
33862;SDS011;20158;51.436;-2.742;2023-07-09T10:44:36;7.15;;;1.95;;
33862;SDS011;20158;51.436;-2.742;2023-07-09T10:53:13;5.28;;;1.95;;
33862;SDS011;20158;51.436;-2.742;2023-07-09T10:55:53;13.40;;;2.90;;
33862;SDS011;20158;51.436;-2.742;2023-07-09T11:01:43;5.47;;;1.48;;
33862;SDS011;20158;51.436;-2.742;2023-07-09T11:07:18;4.45;;;1.20;;
33862;SDS011;20158;51.436;-2.742;2023-07-09T11:09:51;3.58;;;1.60;;
33862;SDS011;20158;51.436;-2.742;2023-07-09T11:12:34;4.57;;;1.90;;
33862;SDS011;20158;51.436;-2.742;2023-07-09T11:15:17;4.80;;;1.98;;
33862;SDS011;20158;51.436;-2.742;2023-07-09T11:17:51;9.05;;;2.13;;
33862;SDS011;20158;51.436;-2.742;2023-07-09T11:20:23;6.38;;;1.80;;
33862;SDS011;20158;51.436;-2.742;2023-07-09T11:22:52;4.45;;;1.80;;
33862;SDS011;20158;51.436;-2.742;2023-07-09T11:25:31;5.82;;;2.30;;
33862;SDS011;20158;51.436;-2.742;2023-07-09T11:28:07;6.93;;;2.05;;
33862;SDS011;20158;51.436;-2.742;2023-07-09T11:30:48;5.95;;;1.63;;
33862;SDS011;20158;51.436;-2.742;2023-07-09T11:33:28;4.70;;;2.28;;
33862;SDS011;20158;51.436;-2.742;2023-07-09T11:36:06;11.73;;;5.40;;
33862;SDS011;20158;51.436;-2.742;2023-07-09T11:38:41;7.38;;;4.45;;
33862;SDS011;20158;51.436;-2.742;2023-07-09T11:41:27;8.27;;;4.43;;
33862;SDS011;20158;51.436;-2.742;2023-07-09T11:44:11;6.97;;;4.30;;
33862;SDS011;20158;51.436;-2.742;2023-07-09T11:46:48;9.25;;;4.55;;
33862;SDS011;20158;51.436;-2.742;2023-07-09T11:49:18;8.10;;;4.20;;
33862;SDS011;20158;51.436;-2.742;2023-07-09T11:51:51;8.20;;;3.80;;
33862;SDS011;20158;51.436;-2.742;2023-07-09T11:54:33;9.02;;;3.83;;
33862;SDS011;20158;51.436;-2.742;2023-07-09T11:57:02;8.13;;;3.17;;
33862;SDS011;20158;51.436;-2.742;2023-07-09T11:59:29;4.72;;;3.13;;
33862;SDS011;20158;51.436;-2.742;2023-07-09T12:01:55;4.90;;;2.83;;
33862;SDS011;20158;51.436;-2.742;2023-07-09T12:04:30;4.70;;;2.33;;
33862;SDS011;20158;51.436;-2.742;2023-07-09T12:07:01;4.97;;;2.47;;
33862;SDS011;20158;51.436;-2.742;2023-07-09T12:09:32;5.47;;;2.28;;
33862;SDS011;20158;51.436;-2.742;2023-07-09T12:12:02;5.40;;;2.35;;
33862;SDS011;20158;51.436;-2.742;2023-07-09T12:14:29;5.13;;;2.30;;
33862;SDS011;20158;51.436;-2.742;2023-07-09T12:16:55;2.20;;;1.58;;
33862;SDS011;20158;51.436;-2.742;2023-07-09T12:19:22;2.83;;;1.77;;
33862;SDS011;20158;51.436;-2.742;2023-07-09T12:21:51;4.32;;;1.67;;
33862;SDS011;20158;51.436;-2.742;2023-07-09T12:24:29;4.30;;;1.83;;
33862;SDS011;20158;51.436;-2.742;2023-07-09T12:27:02;6.13;;;1.95;;
33862;SDS011;20158;51.436;-2.742;2023-07-09T12:29:30;4.47;;;1.85;;
33862;SDS011;20158;51.436;-2.742;2023-07-09T12:32:02;6.38;;;1.92;;
33862;SDS011;20158;51.436;-2.742;2023-07-09T12:34:35;4.93;;;1.67;;
33862;SDS011;20158;51.436;-2.742;2023-07-09T12:37:01;4.78;;;1.48;;
33862;SDS011;20158;51.436;-2.742;2023-07-09T12:39:29;2.63;;;1.50;;
33862;SDS011;20158;51.436;-2.742;2023-07-09T12:41:58;4.15;;;1.40;;
33862;SDS011;20158;51.436;-2.742;2023-07-09T12:44:28;3.60;;;1.38;;
33862;SDS011;20158;51.436;-2.742;2023-07-09T12:46:56;4.40;;;1.55;;
33862;SDS011;20158;51.436;-2.742;2023-07-09T12:49:23;4.03;;;1.30;;
33862;SDS011;20158;51.436;-2.742;2023-07-09T12:51:58;3.78;;;1.55;;
33862;SDS011;20158;51.436;-2.742;2023-07-09T12:54:30;4.05;;;1.60;;
33862;SDS011;20158;51.436;-2.742;2023-07-09T12:56:56;2.10;;;1.10;;
33862;SDS011;20158;51.436;-2.742;2023-07-09T12:59:25;4.93;;;1.27;;
33862;SDS011;20158;51.436;-2.742;2023-07-09T13:02:07;2.78;;;1.10;;
33862;SDS011;20158;51.436;-2.742;2023-07-09T13:04:46;3.08;;;1.30;;
33862;SDS011;20158;51.436;-2.742;2023-07-09T13:09:57;3.50;;;1.20;;
33862;SDS011;20158;51.436;-2.742;2023-07-09T13:14:59;2.97;;;1.17;;
33862;SDS011;20158;51.436;-2.742;2023-07-09T13:17:34;3.40;;;1.27;;
33862;SDS011;20158;51.436;-2.742;2023-07-09T13:20:01;2.20;;;1.15;;
33862;SDS011;20158;51.436;-2.742;2023-07-09T13:22:29;2.88;;;1.38;;
33862;SDS011;20158;51.436;-2.742;2023-07-09T13:24:55;2.80;;;1.00;;
33862;SDS011;20158;51.436;-2.742;2023-07-09T13:27:21;1.77;;;0.93;;
33862;SDS011;20158;51.436;-2.742;2023-07-09T13:29:48;2.47;;;1.10;;
33862;SDS011;20158;51.436;-2.742;2023-07-09T13:32:15;2.65;;;0.88;;
33862;SDS011;20158;51.436;-2.742;2023-07-09T13:34:47;2.63;;;1.25;;
33862;SDS011;20158;51.436;-2.742;2023-07-09T13:37:14;2.28;;;1.40;;
33862;SDS011;20158;51.436;-2.742;2023-07-09T13:39:41;5.55;;;1.17;;
33862;SDS011;20158;51.436;-2.742;2023-07-09T13:42:10;2.40;;;0.93;;
33862;SDS011;20158;51.436;-2.742;2023-07-09T13:44:39;3.13;;;1.45;;
33862;SDS011;20158;51.436;-2.742;2023-07-09T13:47:17;4.65;;;1.20;;
33862;SDS011;20158;51.436;-2.742;2023-07-09T13:49:45;4.00;;;1.92;;
33862;SDS011;20158;51.436;-2.742;2023-07-09T13:52:15;5.93;;;2.28;;
33862;SDS011;20158;51.436;-2.742;2023-07-09T13:54:46;3.75;;;1.90;;
33862;SDS011;20158;51.436;-2.742;2023-07-09T13:57:14;4.22;;;1.70;;
33862;SDS011;20158;51.436;-2.742;2023-07-09T13:59:43;6.65;;;2.00;;
33862;SDS011;20158;51.436;-2.742;2023-07-09T14:02:17;7.80;;;2.33;;
33862;SDS011;20158;51.436;-2.742;2023-07-09T14:04:50;6.13;;;1.83;;
33862;SDS011;20158;51.436;-2.742;2023-07-09T14:07:23;6.28;;;1.92;;
33862;SDS011;20158;51.436;-2.742;2023-07-09T14:09:55;6.43;;;1.77;;
33862;SDS011;20158;51.436;-2.742;2023-07-09T14:12:24;5.65;;;1.73;;
33862;SDS011;20158;51.436;-2.742;2023-07-09T14:14:52;9.68;;;2.55;;
33862;SDS011;20158;51.436;-2.742;2023-07-09T14:17:21;5.78;;;2.17;;
33862;SDS011;20158;51.436;-2.742;2023-07-09T14:19:54;3.78;;;1.75;;
33862;SDS011;20158;51.436;-2.742;2023-07-09T14:22:24;7.93;;;2.47;;
33862;SDS011;20158;51.436;-2.742;2023-07-09T14:25:02;5.30;;;1.65;;
33862;SDS011;20158;51.436;-2.742;2023-07-09T14:27:33;6.97;;;2.30;;
33862;SDS011;20158;51.436;-2.742;2023-07-09T14:30:02;13.13;;;2.00;;
33862;SDS011;20158;51.436;-2.742;2023-07-09T14:35:02;6.18;;;2.75;;
33862;SDS011;20158;51.436;-2.742;2023-07-09T14:37:37;5.88;;;1.83;;
33862;SDS011;20158;51.436;-2.742;2023-07-09T14:40:03;4.03;;;1.77;;
33862;SDS011;20158;51.436;-2.742;2023-07-09T14:42:30;5.72;;;2.13;;
33862;SDS011;20158;51.436;-2.742;2023-07-09T14:44:57;4.65;;;1.88;;
33862;SDS011;20158;51.436;-2.742;2023-07-09T14:47:23;2.90;;;0.98;;
33862;SDS011;20158;51.436;-2.742;2023-07-09T14:49:49;6.10;;;1.70;;
33862;SDS011;20158;51.436;-2.742;2023-07-09T14:52:17;5.45;;;2.17;;
33862;SDS011;20158;51.436;-2.742;2023-07-09T14:54:45;4.93;;;1.70;;
33862;SDS011;20158;51.436;-2.742;2023-07-09T14:57:24;7.80;;;2.40;;
33862;SDS011;20158;51.436;-2.742;2023-07-09T14:59:52;5.07;;;1.77;;
33862;SDS011;20158;51.436;-2.742;2023-07-09T15:02:24;9.40;;;2.17;;
33862;SDS011;20158;51.436;-2.742;2023-07-09T15:05:02;10.18;;;1.60;;
33862;SDS011;20158;51.436;-2.742;2023-07-09T15:07:30;6.68;;;1.50;;
33862;SDS011;20158;51.436;-2.742;2023-07-09T15:09:57;6.45;;;1.92;;
33862;SDS011;20158;51.436;-2.742;2023-07-09T15:12:25;5.05;;;1.60;;
33862;SDS011;20158;51.436;-2.742;2023-07-09T15:15:01;8.30;;;1.75;;
33862;SDS011;20158;51.436;-2.742;2023-07-09T15:17:47;4.85;;;1.73;;
33862;SDS011;20158;51.436;-2.742;2023-07-09T15:20:14;9.68;;;2.00;;
33862;SDS011;20158;51.436;-2.742;2023-07-09T15:22:40;6.00;;;2.20;;
33862;SDS011;20158;51.436;-2.742;2023-07-09T15:25:29;5.75;;;1.98;;
33862;SDS011;20158;51.436;-2.742;2023-07-09T15:27:58;6.93;;;2.63;;
33862;SDS011;20158;51.436;-2.742;2023-07-09T15:30:25;11.57;;;1.92;;
33862;SDS011;20158;51.436;-2.742;2023-07-09T15:32:55;7.07;;;3.00;;
33862;SDS011;20158;51.436;-2.742;2023-07-09T15:35:33;4.68;;;2.72;;
33862;SDS011;20158;51.436;-2.742;2023-07-09T15:38:02;7.57;;;2.88;;
33862;SDS011;20158;51.436;-2.742;2023-07-09T15:40:47;10.27;;;3.53;;